sensor_id;sensor_type;location;lat;lon;timestamp;pressure;altitude;pressure_sealevel;temperature;humidity
17521;BME280;8878;-33.370;-70.552;2023-04-22T00:00:39;92175.56;;;18.76;55.08
17521;BME280;8878;-33.370;-70.552;2023-04-22T00:03:13;92180.00;;;18.72;54.81
17521;BME280;8878;-33.370;-70.552;2023-04-22T00:05:54;92179.53;;;18.61;55.06
17521;BME280;8878;-33.370;-70.552;2023-04-22T00:08:30;92177.47;;;18.67;55.05
17521;BME280;8878;-33.370;-70.552;2023-04-22T00:11:09;92178.41;;;18.62;54.89
17521;BME280;8878;-33.370;-70.552;2023-04-22T00:13:45;92179.47;;;18.53;55.07
17521;BME280;8878;-33.370;-70.552;2023-04-22T00:16:19;92175.28;;;18.60;54.83
17521;BME280;8878;-33.370;-70.552;2023-04-22T00:19:02;92169.59;;;18.53;54.89
17521;BME280;8878;-33.370;-70.552;2023-04-22T00:21:35;92178.06;;;18.47;55.33
17521;BME280;8878;-33.370;-70.552;2023-04-22T00:24:06;92175.88;;;18.40;55.67
17521;BME280;8878;-33.370;-70.552;2023-04-22T00:26:38;92174.28;;;18.39;55.45
17521;BME280;8878;-33.370;-70.552;2023-04-22T00:29:07;92173.19;;;18.31;55.77
17521;BME280;8878;-33.370;-70.552;2023-04-22T00:31:43;92170.53;;;18.40;55.48
17521;BME280;8878;-33.370;-70.552;2023-04-22T00:34:17;92171.47;;;18.44;55.71
17521;BME280;8878;-33.370;-70.552;2023-04-22T00:36:56;92174.59;;;18.37;55.48
17521;BME280;8878;-33.370;-70.552;2023-04-22T00:39:29;92177.09;;;18.43;54.99
17521;BME280;8878;-33.370;-70.552;2023-04-22T00:42:05;92179.00;;;18.51;55.21
17521;BME280;8878;-33.370;-70.552;2023-04-22T00:44:42;92173.66;;;18.42;55.18
17521;BME280;8878;-33.370;-70.552;2023-04-22T00:47:17;92152.72;;;18.27;55.63
17521;BME280;8878;-33.370;-70.552;2023-04-22T00:49:55;92162.63;;;18.35;55.25
17521;BME280;8878;-33.370;-70.552;2023-04-22T00:52:35;92159.81;;;18.23;55.84
17521;BME280;8878;-33.370;-70.552;2023-04-22T00:55:05;92157.41;;;18.13;56.01
17521;BME280;8878;-33.370;-70.552;2023-04-22T00:57:35;92160.72;;;18.10;56.52
17521;BME280;8878;-33.370;-70.552;2023-04-22T01:00:09;92153.81;;;18.09;56.14
17521;BME280;8878;-33.370;-70.552;2023-04-22T01:02:41;92149.75;;;18.11;56.03
17521;BME280;8878;-33.370;-70.552;2023-04-22T01:05:11;92151.13;;;18.09;56.10
17521;BME280;8878;-33.370;-70.552;2023-04-22T01:07:44;92159.41;;;17.98;56.35
17521;BME280;8878;-33.370;-70.552;2023-04-22T01:10:14;92141.16;;;17.83;56.73
17521;BME280;8878;-33.370;-70.552;2023-04-22T01:12:44;92146.00;;;17.73;57.14
17521;BME280;8878;-33.370;-70.552;2023-04-22T01:15:14;92146.94;;;17.68;57.01
17521;BME280;8878;-33.370;-70.552;2023-04-22T01:17:48;92151.94;;;17.61;57.45
17521;BME280;8878;-33.370;-70.552;2023-04-22T01:20:18;92153.38;;;17.67;57.24
17521;BME280;8878;-33.370;-70.552;2023-04-22T01:22:48;92156.69;;;17.73;56.98
17521;BME280;8878;-33.370;-70.552;2023-04-22T01:25:21;92153.38;;;17.67;57.24
17521;BME280;8878;-33.370;-70.552;2023-04-22T01:27:50;92140.53;;;17.78;56.78
17521;BME280;8878;-33.370;-70.552;2023-04-22T01:30:21;92145.06;;;17.77;56.50
17521;BME280;8878;-33.370;-70.552;2023-04-22T01:32:50;92150.41;;;17.77;56.51
17521;BME280;8878;-33.370;-70.552;2023-04-22T01:35:20;92147.25;;;17.67;56.70
17521;BME280;8878;-33.370;-70.552;2023-04-22T01:37:50;92156.66;;;17.64;56.86
17521;BME280;8878;-33.370;-70.552;2023-04-22T01:40:22;92138.94;;;17.68;56.63
17521;BME280;8878;-33.370;-70.552;2023-04-22T01:42:52;92149.13;;;17.66;56.46
17521;BME280;8878;-33.370;-70.552;2023-04-22T01:45:22;92138.59;;;17.61;56.54
17521;BME280;8878;-33.370;-70.552;2023-04-22T01:47:51;92137.59;;;17.57;56.23
17521;BME280;8878;-33.370;-70.552;2023-04-22T01:50:21;92133.06;;;17.57;56.60
17521;BME280;8878;-33.370;-70.552;2023-04-22T01:52:51;92138.94;;;17.68;56.30
17521;BME280;8878;-33.370;-70.552;2023-04-22T01:55:22;92134.06;;;17.62;56.49
17521;BME280;8878;-33.370;-70.552;2023-04-22T01:57:52;92137.22;;;17.72;55.67
17521;BME280;8878;-33.370;-70.552;2023-04-22T02:00:21;92134.69;;;17.67;56.25
17521;BME280;8878;-33.370;-70.552;2023-04-22T02:02:51;92133.16;;;17.75;55.80
17521;BME280;8878;-33.370;-70.552;2023-04-22T02:05:20;92131.91;;;17.81;55.61
17521;BME280;8878;-33.370;-70.552;2023-04-22T02:07:51;92129.22;;;17.72;56.07
17521;BME280;8878;-33.370;-70.552;2023-04-22T02:10:22;92121.69;;;17.74;55.87
17521;BME280;8878;-33.370;-70.552;2023-04-22T02:12:52;92126.41;;;17.86;55.20
17521;BME280;8878;-33.370;-70.552;2023-04-22T02:15:22;92123.09;;;17.72;55.65
17521;BME280;8878;-33.370;-70.552;2023-04-22T02:17:53;92127.28;;;17.64;55.71
17521;BME280;8878;-33.370;-70.552;2023-04-22T02:20:22;92124.72;;;17.19;55.66
17521;BME280;8878;-33.370;-70.552;2023-04-22T02:22:52;92126.28;;;17.20;55.85
17521;BME280;8878;-33.370;-70.552;2023-04-22T02:25:23;92127.72;;;17.27;56.14
17521;BME280;8878;-33.370;-70.552;2023-04-22T02:27:52;92132.81;;;17.37;55.75
17521;BME280;8878;-33.370;-70.552;2023-04-22T02:30:22;92120.66;;;17.22;55.65
17521;BME280;8878;-33.370;-70.552;2023-04-22T02:32:51;92123.97;;;17.28;56.26
17521;BME280;8878;-33.370;-70.552;2023-04-22T02:35:22;92127.88;;;17.21;55.89
17521;BME280;8878;-33.370;-70.552;2023-04-22T02:37:51;92133.22;;;17.21;55.84
17521;BME280;8878;-33.370;-70.552;2023-04-22T02:40:22;92126.53;;;17.33;55.59
17521;BME280;8878;-33.370;-70.552;2023-04-22T02:42:52;92134.66;;;17.28;55.31
17521;BME280;8878;-33.370;-70.552;2023-04-22T02:45:22;92132.50;;;17.07;56.61
17521;BME280;8878;-33.370;-70.552;2023-04-22T02:47:51;92126.94;;;16.95;56.99
17521;BME280;8878;-33.370;-70.552;2023-04-22T02:50:21;92129.97;;;17.02;56.72
17521;BME280;8878;-33.370;-70.552;2023-04-22T02:52:50;92137.00;;;16.98;56.85
17521;BME280;8878;-33.370;-70.552;2023-04-22T02:55:20;92131.34;;;17.00;56.71
17521;BME280;8878;-33.370;-70.552;2023-04-22T02:57:52;92129.31;;;16.97;56.56
17521;BME280;8878;-33.370;-70.552;2023-04-22T03:00:21;92127.19;;;16.85;56.90
17521;BME280;8878;-33.370;-70.552;2023-04-22T03:02:51;92130.00;;;16.80;57.01
17521;BME280;8878;-33.370;-70.552;2023-04-22T03:05:21;92131.28;;;16.47;57.10
17521;BME280;8878;-33.370;-70.552;2023-04-22T03:07:50;92130.34;;;16.65;57.50
17521;BME280;8878;-33.370;-70.552;2023-04-22T03:10:20;92126.66;;;16.74;57.09
17521;BME280;8878;-33.370;-70.552;2023-04-22T03:12:51;92125.38;;;16.72;57.20
17521;BME280;8878;-33.370;-70.552;2023-04-22T03:15:21;92130.28;;;16.78;56.53
17521;BME280;8878;-33.370;-70.552;2023-04-22T03:17:50;92129.19;;;16.79;56.83
17521;BME280;8878;-33.370;-70.552;2023-04-22T03:20:21;92123.09;;;16.79;57.23
17521;BME280;8878;-33.370;-70.552;2023-04-22T03:22:51;92113.72;;;16.81;57.00
17521;BME280;8878;-33.370;-70.552;2023-04-22T03:25:21;92112.06;;;16.72;56.96
17521;BME280;8878;-33.370;-70.552;2023-04-22T03:27:52;92114.50;;;16.82;56.91
17521;BME280;8878;-33.370;-70.552;2023-04-22T03:30:22;92110.97;;;16.73;56.52
17521;BME280;8878;-33.370;-70.552;2023-04-22T03:32:51;92106.16;;;16.75;57.05
17521;BME280;8878;-33.370;-70.552;2023-04-22T03:35:20;92110.25;;;16.81;57.29
17521;BME280;8878;-33.370;-70.552;2023-04-22T03:37:50;92105.66;;;16.73;57.30
17521;BME280;8878;-33.370;-70.552;2023-04-22T03:40:19;92107.78;;;16.62;58.01
17521;BME280;8878;-33.370;-70.552;2023-04-22T03:42:49;92101.28;;;16.55;58.27
17521;BME280;8878;-33.370;-70.552;2023-04-22T03:45:20;92088.91;;;16.59;57.79
17521;BME280;8878;-33.370;-70.552;2023-04-22T03:47:50;92086.47;;;16.62;57.48
17521;BME280;8878;-33.370;-70.552;2023-04-22T03:50:19;92084.19;;;16.56;57.54
17521;BME280;8878;-33.370;-70.552;2023-04-22T03:52:48;92092.97;;;16.56;57.59
17521;BME280;8878;-33.370;-70.552;2023-04-22T03:55:18;92084.97;;;16.56;57.65
17521;BME280;8878;-33.370;-70.552;2023-04-22T03:57:47;92089.34;;;16.52;57.70
17521;BME280;8878;-33.370;-70.552;2023-04-22T04:00:16;92089.06;;;16.54;57.79
17521;BME280;8878;-33.370;-70.552;2023-04-22T04:02:49;92077.31;;;16.55;57.88
17521;BME280;8878;-33.370;-70.552;2023-04-22T04:05:19;92079.34;;;16.35;58.29
17521;BME280;8878;-33.370;-70.552;2023-04-22T04:07:48;92086.97;;;16.28;58.45
17521;BME280;8878;-33.370;-70.552;2023-04-22T04:10:18;92073.19;;;16.26;58.51
17521;BME280;8878;-33.370;-70.552;2023-04-22T04:12:47;92075.09;;;16.34;58.14
17521;BME280;8878;-33.370;-70.552;2023-04-22T04:15:17;92077.19;;;16.37;58.10
17521;BME280;8878;-33.370;-70.552;2023-04-22T04:17:49;92071.13;;;16.45;57.76
17521;BME280;8878;-33.370;-70.552;2023-04-22T04:20:18;92064.09;;;16.50;57.33
17521;BME280;8878;-33.370;-70.552;2023-04-22T04:22:48;92071.13;;;16.45;57.49
17521;BME280;8878;-33.370;-70.552;2023-04-22T04:25:17;92066.72;;;16.41;57.54
17521;BME280;8878;-33.370;-70.552;2023-04-22T04:27:47;92063.75;;;16.42;57.60
17521;BME280;8878;-33.370;-70.552;2023-04-22T04:30:17;92060.53;;;16.32;57.84
17521;BME280;8878;-33.370;-70.552;2023-04-22T04:32:49;92055.44;;;16.22;57.92
17521;BME280;8878;-33.370;-70.552;2023-04-22T04:35:19;92052.13;;;16.16;58.10
17521;BME280;8878;-33.370;-70.552;2023-04-22T04:37:49;92057.94;;;16.18;58.13
17521;BME280;8878;-33.370;-70.552;2023-04-22T04:40:19;92048.38;;;16.17;58.11
17521;BME280;8878;-33.370;-70.552;2023-04-22T04:42:49;92052.84;;;16.08;57.74
17521;BME280;8878;-33.370;-70.552;2023-04-22T04:45:21;92043.69;;;16.00;57.78
17521;BME280;8878;-33.370;-70.552;2023-04-22T04:47:53;92041.91;;;16.10;58.33
17521;BME280;8878;-33.370;-70.552;2023-04-22T04:50:23;92045.94;;;16.29;57.73
17521;BME280;8878;-33.370;-70.552;2023-04-22T04:52:53;92035.78;;;16.31;57.77
17521;BME280;8878;-33.370;-70.552;2023-04-22T04:55:24;92036.88;;;16.30;57.67
17521;BME280;8878;-33.370;-70.552;2023-04-22T04:57:53;92038.63;;;16.35;57.53
17521;BME280;8878;-33.370;-70.552;2023-04-22T05:00:24;92041.97;;;16.18;57.92
17521;BME280;8878;-33.370;-70.552;2023-04-22T05:02:55;92042.31;;;16.03;57.68
17521;BME280;8878;-33.370;-70.552;2023-04-22T05:05:24;92044.72;;;16.13;58.24
17521;BME280;8878;-33.370;-70.552;2023-04-22T05:07:54;92034.56;;;16.15;57.84
17521;BME280;8878;-33.370;-70.552;2023-04-22T05:10:23;92043.28;;;16.07;57.92
17521;BME280;8878;-33.370;-70.552;2023-04-22T05:12:53;92039.53;;;16.08;58.00
17521;BME280;8878;-33.370;-70.552;2023-04-22T05:15:22;92035.78;;;16.09;58.15
17521;BME280;8878;-33.370;-70.552;2023-04-22T05:17:52;92043.91;;;16.04;58.07
17521;BME280;8878;-33.370;-70.552;2023-04-22T05:20:24;92046.06;;;16.02;58.11
17521;BME280;8878;-33.370;-70.552;2023-04-22T05:22:53;92037.94;;;16.07;58.05
17521;BME280;8878;-33.370;-70.552;2023-04-22T05:25:23;92039.03;;;16.06;57.96
17521;BME280;8878;-33.370;-70.552;2023-04-22T05:27:53;92035.41;;;16.02;58.36
17521;BME280;8878;-33.370;-70.552;2023-04-22T05:30:22;92034.75;;;15.96;58.27
17521;BME280;8878;-33.370;-70.552;2023-04-22T05:32:52;92035.59;;;15.83;57.68
17521;BME280;8878;-33.370;-70.552;2023-04-22T05:35:23;92041.56;;;15.89;58.17
17521;BME280;8878;-33.370;-70.552;2023-04-22T05:37:53;92053.28;;;15.88;57.74
17521;BME280;8878;-33.370;-70.552;2023-04-22T05:40:23;92044.34;;;15.84;57.67
17521;BME280;8878;-33.370;-70.552;2023-04-22T05:42:52;92036.00;;;15.77;57.63
17521;BME280;8878;-33.370;-70.552;2023-04-22T05:45:22;92042.53;;;15.93;58.21
17521;BME280;8878;-33.370;-70.552;2023-04-22T05:47:53;92046.19;;;15.97;58.02
17521;BME280;8878;-33.370;-70.552;2023-04-22T05:50:24;92051.34;;;15.80;57.73
17521;BME280;8878;-33.370;-70.552;2023-04-22T05:52:53;92052.81;;;15.86;58.03
17521;BME280;8878;-33.370;-70.552;2023-04-22T05:55:23;92054.75;;;15.94;57.69
17521;BME280;8878;-33.370;-70.552;2023-04-22T05:57:52;92052.22;;;15.89;57.85
17521;BME280;8878;-33.370;-70.552;2023-04-22T06:00:21;92042.16;;;15.86;57.88
17521;BME280;8878;-33.370;-70.552;2023-04-22T06:02:51;92058.06;;;15.77;57.64
17521;BME280;8878;-33.370;-70.552;2023-04-22T06:05:22;92050.47;;;15.71;58.14
17521;BME280;8878;-33.370;-70.552;2023-04-22T06:07:52;92050.09;;;15.77;57.78
17521;BME280;8878;-33.370;-70.552;2023-04-22T06:10:21;92053.03;;;15.76;57.97
17521;BME280;8878;-33.370;-70.552;2023-04-22T06:12:50;92046.41;;;15.87;57.86
17521;BME280;8878;-33.370;-70.552;2023-04-22T06:15:20;92049.31;;;15.77;58.13
17521;BME280;8878;-33.370;-70.552;2023-04-22T06:17:49;92049.31;;;15.77;58.36
17521;BME280;8878;-33.370;-70.552;2023-04-22T06:20:19;92045.75;;;15.68;57.78
17521;BME280;8878;-33.370;-70.552;2023-04-22T06:22:50;92045.53;;;15.78;57.81
17521;BME280;8878;-33.370;-70.552;2023-04-22T06:25:19;92042.88;;;15.78;58.03
17521;BME280;8878;-33.370;-70.552;2023-04-22T06:27:49;92042.59;;;15.65;57.97
17521;BME280;8878;-33.370;-70.552;2023-04-22T06:30:18;92036.09;;;15.72;58.17
17521;BME280;8878;-33.370;-70.552;2023-04-22T06:32:48;92034.41;;;15.76;57.99
17521;BME280;8878;-33.370;-70.552;2023-04-22T06:35:17;92030.34;;;15.78;58.27
17521;BME280;8878;-33.370;-70.552;2023-04-22T06:37:49;92026.16;;;15.77;57.97
17521;BME280;8878;-33.370;-70.552;2023-04-22T06:40:18;92034.72;;;15.74;57.93
17521;BME280;8878;-33.370;-70.552;2023-04-22T06:42:48;92022.78;;;15.72;57.86
17521;BME280;8878;-33.370;-70.552;2023-04-22T06:45:19;92030.59;;;15.68;57.75
17521;BME280;8878;-33.370;-70.552;2023-04-22T06:47:48;92030.78;;;15.44;57.44
17521;BME280;8878;-33.370;-70.552;2023-04-22T06:50:20;92025.31;;;15.54;57.82
17521;BME280;8878;-33.370;-70.552;2023-04-22T06:52:52;92022.13;;;15.52;57.80
17521;BME280;8878;-33.370;-70.552;2023-04-22T06:55:22;92020.78;;;15.55;57.38
17521;BME280;8878;-33.370;-70.552;2023-04-22T06:57:51;92023.31;;;15.46;57.99
17521;BME280;8878;-33.370;-70.552;2023-04-22T07:00:21;92020.84;;;15.36;58.38
17521;BME280;8878;-33.370;-70.552;2023-04-22T07:02:51;92014.56;;;15.46;57.67
17521;BME280;8878;-33.370;-70.552;2023-04-22T07:05:20;92014.16;;;15.39;58.16
17521;BME280;8878;-33.370;-70.552;2023-04-22T07:07:52;92007.94;;;15.57;57.80
17521;BME280;8878;-33.370;-70.552;2023-04-22T07:10:21;92015.22;;;15.51;57.73
17521;BME280;8878;-33.370;-70.552;2023-04-22T07:12:51;92009.91;;;15.51;57.71
17521;BME280;8878;-33.370;-70.552;2023-04-22T07:15:20;92016.72;;;15.44;58.23
17521;BME280;8878;-33.370;-70.552;2023-04-22T07:17:50;92016.59;;;15.49;57.93
17521;BME280;8878;-33.370;-70.552;2023-04-22T07:20:20;92017.00;;;15.42;58.09
17521;BME280;8878;-33.370;-70.552;2023-04-22T07:22:51;92012.88;;;15.36;58.35
17521;BME280;8878;-33.370;-70.552;2023-04-22T07:25:20;92012.72;;;15.33;58.54
17521;BME280;8878;-33.370;-70.552;2023-04-22T07:27:50;92010.91;;;15.28;58.68
17521;BME280;8878;-33.370;-70.552;2023-04-22T07:30:20;92013.91;;;15.26;58.54
17521;BME280;8878;-33.370;-70.552;2023-04-22T07:32:49;92009.25;;;15.32;58.39
17521;BME280;8878;-33.370;-70.552;2023-04-22T07:35:18;92015.84;;;15.35;58.29
17521;BME280;8878;-33.370;-70.552;2023-04-22T07:37:50;92013.78;;;15.32;58.42
17521;BME280;8878;-33.370;-70.552;2023-04-22T07:40:20;92011.09;;;15.45;58.15
17521;BME280;8878;-33.370;-70.552;2023-04-22T07:42:49;92030.00;;;15.44;58.06
17521;BME280;8878;-33.370;-70.552;2023-04-22T07:45:19;92022.72;;;15.36;58.04
17521;BME280;8878;-33.370;-70.552;2023-04-22T07:47:48;92013.91;;;15.26;58.14
17521;BME280;8878;-33.370;-70.552;2023-04-22T07:50:18;92021.47;;;15.33;58.38
17521;BME280;8878;-33.370;-70.552;2023-04-22T07:52:47;92022.16;;;15.39;58.28
17521;BME280;8878;-33.370;-70.552;2023-04-22T07:55:19;92032.56;;;15.49;58.22
17521;BME280;8878;-33.370;-70.552;2023-04-22T07:57:48;92020.66;;;15.46;58.11
17521;BME280;8878;-33.370;-70.552;2023-04-22T08:00:17;92028.34;;;15.48;58.06
17521;BME280;8878;-33.370;-70.552;2023-04-22T08:02:47;92023.63;;;15.45;57.71
17521;BME280;8878;-33.370;-70.552;2023-04-22T08:05:16;92017.78;;;15.43;57.46
17521;BME280;8878;-33.370;-70.552;2023-04-22T08:07:46;92023.22;;;15.51;57.50
17521;BME280;8878;-33.370;-70.552;2023-04-22T08:10:17;92015.75;;;15.40;56.80
17521;BME280;8878;-33.370;-70.552;2023-04-22T08:12:47;92016.91;;;15.47;56.64
17521;BME280;8878;-33.370;-70.552;2023-04-22T08:15:16;92020.97;;;15.58;56.20
17521;BME280;8878;-33.370;-70.552;2023-04-22T08:17:46;92017.22;;;15.46;55.76
17521;BME280;8878;-33.370;-70.552;2023-04-22T08:20:15;92012.00;;;15.41;55.41
17521;BME280;8878;-33.370;-70.552;2023-04-22T08:22:46;92019.41;;;14.89;56.40
17521;BME280;8878;-33.370;-70.552;2023-04-22T08:25:19;92017.72;;;15.07;56.27
17521;BME280;8878;-33.370;-70.552;2023-04-22T08:27:49;92018.81;;;15.19;56.05
17521;BME280;8878;-33.370;-70.552;2023-04-22T08:30:19;92020.59;;;15.24;56.31
17521;BME280;8878;-33.370;-70.552;2023-04-22T08:32:48;92017.41;;;15.36;56.53
17521;BME280;8878;-33.370;-70.552;2023-04-22T08:35:19;92017.00;;;15.42;56.34
17521;BME280;8878;-33.370;-70.552;2023-04-22T08:37:48;92024.97;;;15.42;56.68
17521;BME280;8878;-33.370;-70.552;2023-04-22T08:40:19;92009.00;;;15.20;57.10
17521;BME280;8878;-33.370;-70.552;2023-04-22T08:42:49;92014.47;;;15.23;56.89
17521;BME280;8878;-33.370;-70.552;2023-04-22T08:45:20;92007.00;;;15.25;56.43
17521;BME280;8878;-33.370;-70.552;2023-04-22T08:47:50;92012.63;;;15.24;56.97
17521;BME280;8878;-33.370;-70.552;2023-04-22T08:50:20;92014.47;;;15.23;56.90
17521;BME280;8878;-33.370;-70.552;2023-04-22T08:52:49;92020.97;;;15.17;56.65
17521;BME280;8878;-33.370;-70.552;2023-04-22T08:55:21;92019.22;;;15.26;57.40
17521;BME280;8878;-33.370;-70.552;2023-04-22T08:57:50;92018.44;;;15.12;58.00
17521;BME280;8878;-33.370;-70.552;2023-04-22T09:00:20;92019.50;;;15.11;58.29
17521;BME280;8878;-33.370;-70.552;2023-04-22T09:02:50;92015.28;;;15.24;57.44
17521;BME280;8878;-33.370;-70.552;2023-04-22T09:05:21;92012.34;;;15.12;57.82
17521;BME280;8878;-33.370;-70.552;2023-04-22T09:07:52;92025.31;;;15.13;57.63
17521;BME280;8878;-33.370;-70.552;2023-04-22T09:10:23;92026.09;;;15.14;57.83
17521;BME280;8878;-33.370;-70.552;2023-04-22T09:12:53;92023.94;;;15.16;57.79
17521;BME280;8878;-33.370;-70.552;2023-04-22T09:15:23;92025.50;;;15.03;58.15
17521;BME280;8878;-33.370;-70.552;2023-04-22T09:17:53;92032.41;;;15.04;58.27
17521;BME280;8878;-33.370;-70.552;2023-04-22T09:20:26;92028.97;;;14.90;58.05
17521;BME280;8878;-33.370;-70.552;2023-04-22T09:22:57;92019.13;;;14.91;58.70
17521;BME280;8878;-33.370;-70.552;2023-04-22T09:25:33;92029.34;;;14.97;58.72
17521;BME280;8878;-33.370;-70.552;2023-04-22T09:28:03;92031.81;;;14.94;58.31
17521;BME280;8878;-33.370;-70.552;2023-04-22T09:30:33;92027.28;;;14.94;58.78
17521;BME280;8878;-33.370;-70.552;2023-04-22T09:33:05;92025.31;;;15.00;58.28
17521;BME280;8878;-33.370;-70.552;2023-04-22T09:35:35;92020.78;;;15.00;58.37
17521;BME280;8878;-33.370;-70.552;2023-04-22T09:38:07;92031.81;;;14.94;58.19
17521;BME280;8878;-33.370;-70.552;2023-04-22T09:40:41;92039.28;;;14.92;58.30
17521;BME280;8878;-33.370;-70.552;2023-04-22T09:43:11;92033.94;;;14.78;57.78
17521;BME280;8878;-33.370;-70.552;2023-04-22T09:45:41;92034.16;;;14.68;58.38
17521;BME280;8878;-33.370;-70.552;2023-04-22T09:48:11;92026.88;;;14.73;58.93
17521;BME280;8878;-33.370;-70.552;2023-04-22T09:50:43;92026.38;;;14.71;58.89
17521;BME280;8878;-33.370;-70.552;2023-04-22T09:53:15;92031.59;;;14.76;58.27
17521;BME280;8878;-33.370;-70.552;2023-04-22T09:55:47;92036.53;;;14.83;59.20
17521;BME280;8878;-33.370;-70.552;2023-04-22T09:58:18;92038.91;;;14.84;58.76
17521;BME280;8878;-33.370;-70.552;2023-04-22T10:00:52;92032.47;;;14.85;58.53
17521;BME280;8878;-33.370;-70.552;2023-04-22T10:03:22;92037.50;;;14.87;58.81
17521;BME280;8878;-33.370;-70.552;2023-04-22T10:05:51;92036.91;;;14.76;58.70
17521;BME280;8878;-33.370;-70.552;2023-04-22T10:08:20;92043.59;;;14.74;59.38
17521;BME280;8878;-33.370;-70.552;2023-04-22T10:10:53;92038.78;;;14.76;59.13
17521;BME280;8878;-33.370;-70.552;2023-04-22T10:13:22;92046.06;;;14.70;59.11
17521;BME280;8878;-33.370;-70.552;2023-04-22T10:15:52;92040.03;;;14.78;58.82
17521;BME280;8878;-33.370;-70.552;2023-04-22T10:18:25;92051.44;;;14.65;59.28
17521;BME280;8878;-33.370;-70.552;2023-04-22T10:20:56;92053.03;;;14.80;59.00
17521;BME280;8878;-33.370;-70.552;2023-04-22T10:23:31;92052.50;;;14.64;59.14
17521;BME280;8878;-33.370;-70.552;2023-04-22T10:26:05;92058.34;;;14.80;59.02
17521;BME280;8878;-33.370;-70.552;2023-04-22T10:28:34;92055.22;;;14.92;58.67
17521;BME280;8878;-33.370;-70.552;2023-04-22T10:31:18;92051.84;;;14.86;58.72
17521;BME280;8878;-33.370;-70.552;2023-04-22T10:33:48;92059.13;;;14.80;58.69
17521;BME280;8878;-33.370;-70.552;2023-04-22T10:36:18;92052.91;;;14.71;59.44
17521;BME280;8878;-33.370;-70.552;2023-04-22T10:39:16;92049.47;;;14.71;59.94
17521;BME280;8878;-33.370;-70.552;2023-04-22T10:42:04;92048.13;;;14.73;60.32
17521;BME280;8878;-33.370;-70.552;2023-04-22T10:44:46;92050.06;;;14.68;60.29
17521;BME280;8878;-33.370;-70.552;2023-04-22T10:47:26;92055.56;;;14.71;59.78
17521;BME280;8878;-33.370;-70.552;2023-04-22T10:50:21;92054.22;;;14.74;58.66
17521;BME280;8878;-33.370;-70.552;2023-04-22T10:52:54;92060.97;;;14.66;59.34
17521;BME280;8878;-33.370;-70.552;2023-04-22T10:55:24;92055.56;;;14.71;58.26
17521;BME280;8878;-33.370;-70.552;2023-04-22T10:57:55;92058.19;;;14.58;58.02
17521;BME280;8878;-33.370;-70.552;2023-04-22T11:00:41;92045.66;;;14.63;58.46
17521;BME280;8878;-33.370;-70.552;2023-04-22T11:03:16;92048.63;;;14.43;58.42
17521;BME280;8878;-33.370;-70.552;2023-04-22T11:05:46;92050.31;;;14.39;58.32
17521;BME280;8878;-33.370;-70.552;2023-04-22T11:08:18;92040.91;;;14.60;58.34
17521;BME280;8878;-33.370;-70.552;2023-04-22T11:10:50;92040.16;;;14.73;57.89
17521;BME280;8878;-33.370;-70.552;2023-04-22T11:13:22;92041.81;;;14.69;57.45
17521;BME280;8878;-33.370;-70.552;2023-04-22T11:15:54;92045.66;;;14.63;57.89
17521;BME280;8878;-33.370;-70.552;2023-04-22T11:18:25;92046.91;;;14.66;58.48
17521;BME280;8878;-33.370;-70.552;2023-04-22T11:20:54;92044.78;;;14.81;58.66
17521;BME280;8878;-33.370;-70.552;2023-04-22T11:23:24;92049.13;;;14.77;58.63
17521;BME280;8878;-33.370;-70.552;2023-04-22T11:25:56;92043.00;;;14.63;58.88
17521;BME280;8878;-33.370;-70.552;2023-04-22T11:28:27;92054.59;;;14.67;58.51
17521;BME280;8878;-33.370;-70.552;2023-04-22T11:31:04;92056.75;;;14.65;58.85
17521;BME280;8878;-33.370;-70.552;2023-04-22T11:33:34;92056.88;;;14.74;58.45
17521;BME280;8878;-33.370;-70.552;2023-04-22T11:36:08;92055.41;;;14.81;58.59
17521;BME280;8878;-33.370;-70.552;2023-04-22T11:38:53;92062.88;;;14.79;58.48
17521;BME280;8878;-33.370;-70.552;2023-04-22T11:41:27;92058.09;;;14.49;58.38
17521;BME280;8878;-33.370;-70.552;2023-04-22T11:43:59;92059.13;;;14.67;58.16
17521;BME280;8878;-33.370;-70.552;2023-04-22T11:46:29;92058.97;;;14.91;58.31
17521;BME280;8878;-33.370;-70.552;2023-04-22T11:49:13;92061.13;;;15.02;57.79
17521;BME280;8878;-33.370;-70.552;2023-04-22T11:51:55;92065.16;;;15.00;57.95
17521;BME280;8878;-33.370;-70.552;2023-04-22T11:54:32;92059.16;;;15.08;57.75
17521;BME280;8878;-33.370;-70.552;2023-04-22T11:57:02;92052.25;;;15.07;57.66
17521;BME280;8878;-33.370;-70.552;2023-04-22T11:59:37;92060.75;;;15.09;57.27
17521;BME280;8878;-33.370;-70.552;2023-04-22T12:02:06;92061.25;;;15.11;57.73
17521;BME280;8878;-33.370;-70.552;2023-04-22T12:04:37;92067.84;;;15.27;57.30
17521;BME280;8878;-33.370;-70.552;2023-04-22T12:07:07;92057.59;;;15.34;57.16
17521;BME280;8878;-33.370;-70.552;2023-04-22T12:09:36;92064.06;;;15.42;56.80
17521;BME280;8878;-33.370;-70.552;2023-04-22T12:12:08;92067.13;;;15.35;57.03
17521;BME280;8878;-33.370;-70.552;2023-04-22T12:14:39;92071.19;;;15.46;56.89
17521;BME280;8878;-33.370;-70.552;2023-04-22T12:17:09;92075.53;;;15.56;56.63
17521;BME280;8878;-33.370;-70.552;2023-04-22T12:19:38;92079.56;;;15.53;56.13
17521;BME280;8878;-33.370;-70.552;2023-04-22T12:22:09;92072.34;;;15.68;56.53
17521;BME280;8878;-33.370;-70.552;2023-04-22T12:24:44;92077.16;;;15.79;56.27
17521;BME280;8878;-33.370;-70.552;2023-04-22T12:27:13;92083.56;;;15.78;56.23
17521;BME280;8878;-33.370;-70.552;2023-04-22T12:29:51;92078.63;;;15.85;56.21
17521;BME280;8878;-33.370;-70.552;2023-04-22T12:32:21;92081.41;;;16.16;56.21
17521;BME280;8878;-33.370;-70.552;2023-04-22T12:34:50;92080.44;;;16.34;55.78
17521;BME280;8878;-33.370;-70.552;2023-04-22T12:37:20;92072.66;;;16.38;55.18
17521;BME280;8878;-33.370;-70.552;2023-04-22T12:39:49;92086.13;;;16.41;54.83
17521;BME280;8878;-33.370;-70.552;2023-04-22T12:42:18;92081.78;;;16.45;54.92
17521;BME280;8878;-33.370;-70.552;2023-04-22T12:44:50;92079.97;;;16.55;54.15
17521;BME280;8878;-33.370;-70.552;2023-04-22T12:47:19;92087.38;;;16.80;53.43
17521;BME280;8878;-33.370;-70.552;2023-04-22T12:49:49;92086.69;;;16.97;53.38
17521;BME280;8878;-33.370;-70.552;2023-04-22T12:52:18;92083.81;;;16.93;52.18
17521;BME280;8878;-33.370;-70.552;2023-04-22T12:54:47;92090.66;;;17.08;51.37
17521;BME280;8878;-33.370;-70.552;2023-04-22T12:57:17;92090.25;;;17.23;51.49
17521;BME280;8878;-33.370;-70.552;2023-04-22T12:59:48;92097.47;;;17.22;50.96